createdAt,value
2017-07-10T00:00:01.035Z,11.17
2017-07-10T00:00:05.290Z,11.20
2017-07-10T00:00:09.558Z,11.20
2017-07-10T00:00:13.820Z,11.30
2017-07-10T00:00:18.081Z,11.30
2017-07-10T00:00:22.318Z,11.20
2017-07-10T00:00:26.583Z,11.10
2017-07-10T00:00:30.833Z,11.00
2017-07-10T00:00:35.095Z,11.10
2017-07-10T00:00:39.364Z,11.30
2017-07-10T00:00:43.614Z,11.55
2017-07-10T00:00:47.882Z,11.57
2017-07-10T00:00:52.152Z,11.35
2017-07-10T00:00:56.408Z,11.20
2017-07-10T00:01:00.664Z,11.05
2017-07-10T00:01:04.935Z,10.97
2017-07-10T00:01:09.185Z,10.90
2017-07-10T00:01:13.423Z,10.65
2017-07-10T00:01:17.679Z,10.50
2017-07-10T00:01:21.938Z,10.40
2017-07-10T00:01:26.187Z,10.55
2017-07-10T00:01:30.436Z,10.60
2017-07-10T00:01:34.693Z,10.55
2017-07-10T00:01:38.965Z,10.53
2017-07-10T00:01:43.212Z,10.35
2017-07-10T00:01:47.520Z,10.25
2017-07-10T00:01:51.716Z,10.40
2017-07-10T00:01:55.965Z,10.60
2017-07-10T00:02:00.205Z,10.80
2017-07-10T00:02:04.466Z,10.85
2017-07-10T00:02:08.812Z,10.90
2017-07-10T00:02:13.060Z,11.00
2017-07-10T00:02:17.727Z,11.17
2017-07-10T00:02:21.967Z,11.30
2017-07-10T00:02:26.210Z,11.30
2017-07-10T00:02:30.451Z,11.40
2017-07-10T00:02:34.720Z,11.43
2017-07-10T00:02:38.958Z,11.30
2017-07-10T00:02:43.216Z,11.30
2017-07-10T00:02:47.467Z,11.30
2017-07-10T00:02:51.727Z,11.23
2017-07-10T00:02:55.966Z,11.10
2017-07-10T00:03:00.222Z,11.00
2017-07-10T00:03:04.469Z,11.10
2017-07-10T00:03:08.716Z,11.00
2017-07-10T00:03:12.964Z,11.00
2017-07-10T00:03:17.216Z,11.00
2017-07-10T00:03:21.487Z,10.90
2017-07-10T00:03:25.744Z,11.10
2017-07-10T00:03:29.999Z,11.10
2017-07-10T00:03:34.252Z,11.15
2017-07-10T00:03:38.509Z,11.30
2017-07-10T00:03:42.770Z,11.30
2017-07-10T00:03:47.040Z,11.55
2017-07-10T00:03:51.302Z,11.50
2017-07-10T00:03:55.558Z,11.50
2017-07-10T00:03:59.819Z,11.60
2017-07-10T00:04:04.067Z,11.60
2017-07-10T00:04:08.346Z,11.60
2017-07-10T00:04:12.585Z,11.65
2017-07-10T00:04:17.595Z,11.70
2017-07-10T00:04:21.858Z,11.70
2017-07-10T00:04:26.098Z,11.45
2017-07-10T00:04:31.137Z,11.40
2017-07-10T00:04:35.410Z,11.40
2017-07-10T00:04:39.660Z,11.30
2017-07-10T00:04:43.902Z,11.15
2017-07-10T00:04:48.151Z,11.10
2017-07-10T00:04:52.444Z,11.20
2017-07-10T00:04:57.448Z,11.30
2017-07-10T00:05:02.476Z,11.30
2017-07-10T00:05:06.722Z,11.17
2017-07-10T00:05:10.965Z,11.25
2017-07-10T00:05:15.222Z,11.20
2017-07-10T00:05:19.482Z,11.20
2017-07-10T00:05:23.713Z,11.10
2017-07-10T00:05:27.958Z,11.15
2017-07-10T00:05:32.991Z,11.23
2017-07-10T00:05:37.261Z,11.30
2017-07-10T00:05:41.532Z,11.35
2017-07-10T00:05:45.774Z,11.45
2017-07-10T00:05:50.809Z,11.40
2017-07-10T00:05:55.062Z,11.40
2017-07-10T00:05:59.365Z,11.40
2017-07-10T00:06:03.616Z,11.50
2017-07-10T00:06:07.878Z,11.53
2017-07-10T00:06:12.148Z,11.60
2017-07-10T00:06:16.395Z,11.75
2017-07-10T00:06:20.635Z,11.95
2017-07-10T00:06:24.907Z,12.10
2017-07-10T00:06:29.924Z,12.10
2017-07-10T00:06:34.970Z,12.00
2017-07-10T00:06:39.189Z,11.97
2017-07-10T00:06:43.456Z,12.10
2017-07-10T00:06:47.705Z,12.00
2017-07-10T00:06:51.970Z,12.00
2017-07-10T00:06:56.232Z,11.90
2017-07-10T00:07:01.241Z,11.65
2017-07-10T00:07:05.489Z,11.53
2017-07-10T00:07:09.758Z,11.57
2017-07-10T00:07:14.775Z,11.50
2017-07-10T00:07:19.791Z,11.43
2017-07-10T00:07:24.806Z,11.37
2017-07-10T00:07:29.835Z,11.50
2017-07-10T00:07:34.073Z,11.40
2017-07-10T00:07:38.348Z,11.35
2017-07-10T00:07:42.603Z,11.20
2017-07-10T00:07:46.851Z,11.30
2017-07-10T00:07:51.127Z,11.30
2017-07-10T00:07:56.141Z,11.30
2017-07-10T00:08:00.390Z,11.57
2017-07-10T00:08:04.666Z,11.80
2017-07-10T00:08:08.903Z,11.95
2017-07-10T00:08:13.164Z,12.00
2017-07-10T00:08:17.427Z,12.00
2017-07-10T00:08:21.691Z,11.90
2017-07-10T00:08:25.933Z,11.80
2017-07-10T00:08:30.170Z,11.80
2017-07-10T00:08:34.421Z,12.07
2017-07-10T00:08:38.694Z,12.25
2017-07-10T00:08:42.945Z,12.55
2017-07-10T00:08:47.240Z,12.50
2017-07-10T00:08:52.260Z,12.57
2017-07-10T00:08:57.273Z,12.60
2017-07-10T00:09:02.297Z,12.37
2017-07-10T00:09:07.323Z,12.20
2017-07-10T00:09:11.569Z,12.00
2017-07-10T00:09:15.814Z,12.00
2017-07-10T00:09:20.839Z,12.00
2017-07-10T00:09:25.855Z,12.10
2017-07-10T00:09:30.869Z,12.10
2017-07-10T00:09:35.887Z,12.07
2017-07-10T00:09:40.916Z,11.83
2017-07-10T00:09:45.931Z,11.40
2017-07-10T00:09:50.203Z,11.40
2017-07-10T00:09:54.467Z,11.35
2017-07-10T00:09:58.714Z,11.30
2017-07-10T00:10:03.285Z,11.45
2017-07-10T00:10:07.546Z,11.50
2017-07-10T00:10:11.797Z,11.50
2017-07-10T00:10:16.059Z,11.40
2017-07-10T00:10:20.306Z,11.57
2017-07-10T00:10:24.560Z,11.70
2017-07-10T00:10:28.807Z,11.70
2017-07-10T00:10:33.055Z,11.63
2017-07-10T00:10:37.299Z,11.70
2017-07-10T00:10:41.544Z,11.85
2017-07-10T00:10:45.793Z,12.15
2017-07-10T00:10:50.038Z,12.07
2017-07-10T00:10:54.296Z,12.05
2017-07-10T00:10:58.556Z,12.00
2017-07-10T00:11:02.802Z,11.95
2017-07-10T00:11:07.066Z,12.00
2017-07-10T00:11:11.318Z,12.10
2017-07-10T00:11:15.570Z,12.10
2017-07-10T00:11:19.824Z,12.05
2017-07-10T00:11:24.078Z,11.80
2017-07-10T00:11:28.317Z,11.65
2017-07-10T00:11:32.593Z,11.55
2017-07-10T00:11:36.856Z,11.60
2017-07-10T00:11:41.125Z,11.60
2017-07-10T00:11:45.375Z,11.45
2017-07-10T00:11:49.621Z,11.60
2017-07-10T00:11:53.891Z,11.60
2017-07-10T00:11:58.122Z,11.70
2017-07-10T00:12:02.377Z,11.90
2017-07-10T00:12:06.628Z,11.80
2017-07-10T00:12:10.873Z,11.83
2017-07-10T00:12:15.967Z,11.85
2017-07-10T00:12:20.286Z,11.83
2017-07-10T00:12:24.478Z,11.90
2017-07-10T00:12:28.736Z,12.07
2017-07-10T00:12:32.984Z,12.05
2017-07-10T00:12:37.238Z,12.00
2017-07-10T00:12:41.518Z,11.90
2017-07-10T00:12:45.745Z,11.70
2017-07-10T00:12:50.006Z,11.65
2017-07-10T00:12:54.262Z,11.80
2017-07-10T00:12:58.503Z,11.95
2017-07-10T00:13:02.745Z,11.93
2017-07-10T00:13:06.991Z,11.90
2017-07-10T00:13:11.242Z,11.80
2017-07-10T00:13:15.493Z,11.70
2017-07-10T00:13:19.773Z,11.75
2017-07-10T00:13:24.010Z,11.80
2017-07-10T00:13:28.276Z,11.80
2017-07-10T00:13:33.734Z,11.87
2017-07-10T00:13:37.996Z,11.90
2017-07-10T00:13:42.261Z,11.90
2017-07-10T00:13:46.509Z,12.00
2017-07-10T00:13:50.806Z,11.90
2017-07-10T00:13:55.057Z,11.90
2017-07-10T00:13:59.319Z,11.90
2017-07-10T00:14:03.575Z,12.00
2017-07-10T00:14:07.811Z,12.00
2017-07-10T00:14:12.053Z,12.15
2017-07-10T00:14:16.317Z,12.27
2017-07-10T00:14:20.565Z,12.20
2017-07-10T00:14:24.930Z,12.05
2017-07-10T00:14:29.150Z,12.00
2017-07-10T00:14:33.415Z,12.17
2017-07-10T00:14:37.658Z,12.30
2017-07-10T00:14:41.898Z,12.40
2017-07-10T00:14:46.914Z,12.45
2017-07-10T00:14:51.182Z,12.70
2017-07-10T00:14:55.445Z,12.55
2017-07-10T00:14:59.680Z,12.40
2017-07-10T00:15:03.947Z,12.40
2017-07-10T00:15:08.207Z,12.17
2017-07-10T00:15:13.252Z,12.00
2017-07-10T00:15:17.507Z,12.00
2017-07-10T00:15:21.756Z,12.00
2017-07-10T00:15:26.012Z,12.10
2017-07-10T00:15:30.278Z,11.97
2017-07-10T00:15:34.522Z,11.80
2017-07-10T00:15:39.540Z,11.70
2017-07-10T00:15:44.563Z,11.70
2017-07-10T00:15:48.804Z,11.60
2017-07-10T00:15:53.055Z,11.60
2017-07-10T00:15:57.287Z,11.70
2017-07-10T00:16:01.552Z,11.85
2017-07-10T00:16:05.785Z,12.05
2017-07-10T00:16:10.051Z,12.30
2017-07-10T00:16:14.312Z,12.40
2017-07-10T00:16:18.567Z,12.40
2017-07-10T00:16:22.814Z,12.50
2017-07-10T00:16:27.103Z,12.53
2017-07-10T00:16:31.375Z,12.80
2017-07-10T00:16:35.632Z,13.05
2017-07-10T00:16:39.874Z,13.27
2017-07-10T00:16:44.140Z,13.20
2017-07-10T00:16:48.376Z,13.00
2017-07-10T00:16:52.632Z,13.10
2017-07-10T00:16:56.899Z,13.00
2017-07-10T00:17:01.538Z,12.95
2017-07-10T00:17:05.840Z,12.90
2017-07-10T00:17:10.091Z,12.80
2017-07-10T00:17:14.348Z,12.60
2017-07-10T00:17:18.604Z,12.70
2017-07-10T00:17:22.863Z,12.57
2017-07-10T00:17:27.120Z,12.50
2017-07-10T00:17:31.358Z,12.40
2017-07-10T00:17:35.620Z,12.45
2017-07-10T00:17:39.890Z,12.37
2017-07-10T00:17:44.135Z,12.50
2017-07-10T00:17:48.392Z,12.60
2017-07-10T00:17:52.630Z,12.57
2017-07-10T00:17:57.757Z,12.65
2017-07-10T00:18:02.008Z,12.63
2017-07-10T00:18:06.264Z,12.80
2017-07-10T00:18:10.532Z,12.90
2017-07-10T00:18:14.791Z,12.97
2017-07-10T00:18:19.032Z,12.75
2017-07-10T00:18:23.277Z,12.95
2017-07-10T00:18:27.538Z,13.10
2017-07-10T00:18:31.787Z,13.10
2017-07-10T00:18:36.045Z,13.00
2017-07-10T00:18:40.283Z,13.00
2017-07-10T00:18:44.543Z,13.13
2017-07-10T00:18:48.802Z,13.30
2017-07-10T00:18:53.039Z,13.40
2017-07-10T00:18:57.295Z,13.35
2017-07-10T00:19:01.559Z,13.50
2017-07-10T00:19:05.865Z,13.45
2017-07-10T00:19:10.098Z,13.40
2017-07-10T00:19:14.356Z,13.30
2017-07-10T00:19:18.607Z,13.50
2017-07-10T00:19:22.850Z,13.45
2017-07-10T00:19:27.093Z,13.35
2017-07-10T00:19:31.359Z,13.43
2017-07-10T00:19:35.639Z,13.50
2017-07-10T00:19:39.854Z,13.50
2017-07-10T00:19:44.112Z,13.45
2017-07-10T00:19:48.370Z,13.33
2017-07-10T00:19:52.619Z,13.25
2017-07-10T00:19:56.885Z,13.50
2017-07-10T00:20:01.122Z,13.65
2017-07-10T00:20:05.419Z,13.70
2017-07-10T00:20:09.681Z,13.90
2017-07-10T00:20:13.936Z,14.10
2017-07-10T00:20:18.189Z,14.10
2017-07-10T00:20:22.456Z,14.25
2017-07-10T00:20:26.703Z,14.20
2017-07-10T00:20:30.949Z,14.20
2017-07-10T00:20:35.215Z,14.10
2017-07-10T00:20:39.466Z,14.25
2017-07-10T00:20:43.752Z,14.40
2017-07-10T00:20:47.993Z,14.40
2017-07-10T00:20:52.261Z,14.30
2017-07-10T00:20:56.496Z,14.30
2017-07-10T00:21:00.747Z,14.20
2017-07-10T00:21:04.995Z,13.97
2017-07-10T00:21:09.240Z,13.80
2017-07-10T00:21:13.497Z,13.70
2017-07-10T00:21:17.738Z,13.50
2017-07-10T00:21:21.993Z,13.43
2017-07-10T00:21:26.243Z,13.30
2017-07-10T00:21:30.484Z,13.30
2017-07-10T00:21:34.740Z,13.30
2017-07-10T00:21:38.985Z,13.30
2017-07-10T00:21:43.232Z,13.30
2017-07-10T00:21:47.479Z,13.35
2017-07-10T00:21:51.748Z,13.45
2017-07-10T00:21:55.993Z,13.37
2017-07-10T00:22:00.275Z,13.30
2017-07-10T00:22:04.489Z,13.65
2017-07-10T00:22:08.763Z,13.80
2017-07-10T00:22:13.004Z,13.80
2017-07-10T00:22:17.389Z,13.95
2017-07-10T00:22:21.633Z,13.90
2017-07-10T00:22:25.892Z,13.97
2017-07-10T00:22:30.161Z,13.95
2017-07-10T00:22:34.423Z,13.90
2017-07-10T00:22:38.661Z,13.70
2017-07-10T00:22:42.914Z,13.50
2017-07-10T00:22:47.231Z,13.40
2017-07-10T00:22:51.412Z,13.60
2017-07-10T00:22:55.671Z,13.77
2017-07-10T00:22:59.925Z,13.60
2017-07-10T00:23:04.202Z,13.35
2017-07-10T00:23:08.459Z,13.30
2017-07-10T00:23:12.710Z,13.30
2017-07-10T00:23:16.959Z,13.35
2017-07-10T00:23:21.219Z,13.30
2017-07-10T00:23:25.474Z,13.40
2017-07-10T00:23:29.739Z,13.37
2017-07-10T00:23:33.973Z,13.30
2017-07-10T00:23:38.214Z,13.40
2017-07-10T00:23:42.473Z,13.53
2017-07-10T00:23:46.721Z,13.50
2017-07-10T00:23:50.987Z,13.35
2017-07-10T00:23:55.233Z,13.30
2017-07-10T00:23:59.532Z,13.60
2017-07-10T00:24:03.784Z,13.95
2017-07-10T00:24:08.182Z,14.00
2017-07-10T00:24:12.421Z,14.10
2017-07-10T00:24:16.699Z,14.20
2017-07-10T00:24:20.951Z,14.45
2017-07-10T00:24:25.188Z,14.60
2017-07-10T00:24:29.436Z,14.70
2017-07-10T00:24:33.708Z,14.95
2017-07-10T00:24:37.963Z,15.00
2017-07-10T00:24:42.231Z,14.95
2017-07-10T00:24:46.484Z,15.10
2017-07-10T00:24:50.722Z,15.10
2017-07-10T00:24:54.979Z,15.10
2017-07-10T00:24:59.244Z,14.87
2017-07-10T00:25:03.486Z,14.70
2017-07-10T00:25:08.009Z,14.70
2017-07-10T00:25:12.263Z,14.70
2017-07-10T00:25:16.514Z,14.70
2017-07-10T00:25:20.772Z,14.70
2017-07-10T00:25:25.034Z,14.70
2017-07-10T00:25:29.292Z,14.70
2017-07-10T00:25:33.547Z,14.70
2017-07-10T00:25:37.789Z,14.70
2017-07-10T00:25:42.067Z,14.60
2017-07-10T00:25:46.337Z,14.77
2017-07-10T00:25:50.575Z,14.80
2017-07-10T00:25:54.814Z,14.80
2017-07-10T00:25:59.099Z,14.90
2017-07-10T00:26:03.384Z,15.00
2017-07-10T00:26:07.639Z,15.10
2017-07-10T00:26:11.899Z,15.20
2017-07-10T00:26:16.168Z,15.03
2017-07-10T00:26:20.419Z,14.90
2017-07-10T00:26:24.678Z,14.80
2017-07-10T00:26:28.965Z,14.90
2017-07-10T00:26:33.215Z,14.85
2017-07-10T00:26:37.458Z,14.80
2017-07-10T00:26:41.698Z,14.95
2017-07-10T00:26:45.963Z,14.93
2017-07-10T00:26:50.200Z,14.90
2017-07-10T00:26:54.461Z,14.90
2017-07-10T00:26:58.705Z,14.95
2017-07-10T00:27:02.967Z,14.87
2017-07-10T00:27:07.202Z,14.80
2017-07-10T00:27:11.460Z,14.90
2017-07-10T00:27:15.698Z,15.20
2017-07-10T00:27:19.954Z,15.40
2017-07-10T00:27:24.201Z,15.40
2017-07-10T00:27:28.475Z,15.45
2017-07-10T00:27:32.721Z,15.50
2017-07-10T00:27:37.739Z,15.70
2017-07-10T00:27:41.986Z,15.60
2017-07-10T00:27:46.240Z,15.35
2017-07-10T00:27:51.245Z,15.35
2017-07-10T00:27:55.501Z,15.43
2017-07-10T00:27:59.759Z,15.27
2017-07-10T00:28:04.001Z,15.30
2017-07-10T00:28:08.252Z,15.30
2017-07-10T00:28:12.504Z,15.20
2017-07-10T00:28:16.764Z,15.20
2017-07-10T00:28:21.792Z,15.30
2017-07-10T00:28:27.378Z,15.10
2017-07-10T00:28:31.634Z,14.98
2017-07-10T00:28:35.911Z,14.80
2017-07-10T00:28:40.159Z,14.80
2017-07-10T00:28:44.415Z,14.90
2017-07-10T00:28:49.435Z,15.00
2017-07-10T00:28:54.461Z,15.00
2017-07-10T00:28:58.727Z,15.00
2017-07-10T00:29:02.987Z,15.00
2017-07-10T00:29:07.260Z,15.00
2017-07-10T00:29:12.265Z,14.80
2017-07-10T00:29:17.270Z,14.87
2017-07-10T00:29:21.522Z,14.70
2017-07-10T00:29:25.787Z,14.80
2017-07-10T00:29:30.785Z,14.80
2017-07-10T00:29:35.042Z,14.93
2017-07-10T00:29:39.281Z,15.05
2017-07-10T00:29:43.558Z,15.03
2017-07-10T00:29:47.792Z,15.00
2017-07-10T00:29:52.048Z,15.10
2017-07-10T00:29:56.301Z,15.10
2017-07-10T00:30:00.552Z,15.15
2017-07-10T00:30:04.800Z,15.20
2017-07-10T00:30:09.835Z,15.25
2017-07-10T00:30:14.124Z,15.27
2017-07-10T00:30:19.132Z,15.30
2017-07-10T00:30:23.394Z,15.50
2017-07-10T00:30:27.633Z,15.60
2017-07-10T00:30:31.883Z,15.50
2017-07-10T00:30:36.144Z,15.47
2017-07-10T00:30:41.162Z,15.30
2017-07-10T00:30:45.491Z,15.40
2017-07-10T00:30:49.743Z,15.40
2017-07-10T00:30:53.982Z,15.30
2017-07-10T00:30:58.248Z,15.27
2017-07-10T00:31:02.612Z,15.20
2017-07-10T00:31:06.843Z,15.30
2017-07-10T00:31:11.123Z,15.37
2017-07-10T00:31:15.392Z,15.20
2017-07-10T00:31:19.634Z,15.20
2017-07-10T00:31:23.884Z,15.15
2017-07-10T00:31:28.152Z,15.03
2017-07-10T00:31:32.404Z,15.25
2017-07-10T00:31:36.663Z,15.20
2017-07-10T00:31:41.670Z,15.40
2017-07-10T00:31:45.940Z,15.50
2017-07-10T00:31:50.195Z,15.30
2017-07-10T00:31:55.213Z,15.55
2017-07-10T00:31:59.488Z,15.70
2017-07-10T00:32:03.713Z,15.80
2017-07-10T00:32:08.724Z,15.90
2017-07-10T00:32:13.733Z,16.20
2017-07-10T00:32:18.761Z,16.47
2017-07-10T00:32:23.787Z,16.47
2017-07-10T00:32:28.810Z,16.70
2017-07-10T00:32:33.819Z,16.73
2017-07-10T00:32:38.071Z,16.70
2017-07-10T00:32:42.327Z,16.70
2017-07-10T00:32:46.596Z,16.50
2017-07-10T00:32:50.908Z,16.63
2017-07-10T00:32:55.204Z,16.55
2017-07-10T00:32:59.463Z,16.40
2017-07-10T00:33:03.723Z,16.23
2017-07-10T00:33:08.747Z,16.20
2017-07-10T00:33:13.772Z,15.90
2017-07-10T00:33:18.032Z,15.80
2017-07-10T00:33:22.273Z,15.80
2017-07-10T00:33:26.514Z,15.70
2017-07-10T00:33:30.783Z,15.43
2017-07-10T00:33:35.075Z,15.50
2017-07-10T00:33:39.331Z,15.60
2017-07-10T00:33:43.582Z,15.60
2017-07-10T00:33:47.852Z,15.80
2017-07-10T00:33:52.113Z,15.80
2017-07-10T00:33:56.390Z,15.75
2017-07-10T00:34:00.778Z,15.80
2017-07-10T00:34:05.071Z,15.80
2017-07-10T00:34:09.317Z,15.70
2017-07-10T00:34:13.589Z,15.73
2017-07-10T00:34:17.830Z,15.65
2017-07-10T00:34:22.083Z,15.45
2017-07-10T00:34:26.333Z,15.40
2017-07-10T00:34:30.613Z,15.40
2017-07-10T00:34:34.848Z,15.35
2017-07-10T00:34:39.103Z,15.20
2017-07-10T00:34:43.372Z,15.37
2017-07-10T00:34:48.380Z,15.30
2017-07-10T00:34:53.417Z,15.40
2017-07-10T00:34:58.512Z,15.40
2017-07-10T00:35:02.774Z,15.40
2017-07-10T00:35:07.013Z,15.50
2017-07-10T00:35:12.046Z,15.50
2017-07-10T00:35:17.067Z,15.43
2017-07-10T00:35:22.085Z,15.50
2017-07-10T00:35:26.404Z,15.60
2017-07-10T00:35:30.667Z,15.60
2017-07-10T00:35:34.924Z,15.70
2017-07-10T00:35:39.176Z,15.80
2017-07-10T00:35:44.183Z,15.75
2017-07-10T00:35:48.437Z,15.90
2017-07-10T00:35:52.689Z,15.80
2017-07-10T00:35:57.693Z,15.80
2017-07-10T00:36:01.951Z,15.97
2017-07-10T00:36:06.205Z,15.83
2017-07-10T00:36:10.462Z,15.95
2017-07-10T00:36:14.709Z,16.10
2017-07-10T00:36:19.723Z,16.15
2017-07-10T00:36:24.743Z,16.00
2017-07-10T00:36:29.780Z,16.17
2017-07-10T00:36:34.801Z,16.23
2017-07-10T00:36:39.809Z,16.13
2017-07-10T00:36:44.825Z,16.17
2017-07-10T00:36:49.831Z,15.77
2017-07-10T00:36:54.834Z,15.73
2017-07-10T00:36:59.105Z,15.73
2017-07-10T00:37:03.362Z,15.80
2017-07-10T00:37:08.396Z,15.80
2017-07-10T00:37:12.646Z,15.70
2017-07-10T00:37:16.909Z,15.70
2017-07-10T00:37:21.162Z,15.95
2017-07-10T00:37:25.402Z,15.85
2017-07-10T00:37:29.640Z,15.70
2017-07-10T00:37:33.912Z,15.57
2017-07-10T00:37:38.168Z,15.70
2017-07-10T00:37:42.415Z,15.70
2017-07-10T00:37:46.663Z,16.00
2017-07-10T00:37:51.681Z,16.20
2017-07-10T00:37:55.953Z,16.20
2017-07-10T00:38:00.204Z,16.05
2017-07-10T00:38:05.229Z,16.10
2017-07-10T00:38:09.488Z,16.10
2017-07-10T00:38:13.733Z,15.83
2017-07-10T00:38:17.979Z,15.65
2017-07-10T00:38:22.227Z,15.50
2017-07-10T00:38:26.489Z,15.60
2017-07-10T00:38:30.753Z,15.77
2017-07-10T00:38:35.016Z,15.85
2017-07-10T00:38:40.037Z,15.90
2017-07-10T00:38:44.298Z,15.77
2017-07-10T00:38:48.558Z,15.50
2017-07-10T00:38:52.845Z,15.60
2017-07-10T00:38:57.918Z,15.70
2017-07-10T00:39:02.173Z,15.83
2017-07-10T00:39:06.473Z,15.90
2017-07-10T00:39:10.747Z,15.80
2017-07-10T00:39:14.989Z,15.80
2017-07-10T00:39:19.266Z,15.95
2017-07-10T00:39:23.532Z,16.00
2017-07-10T00:39:27.765Z,15.90
2017-07-10T00:39:32.043Z,15.80
2017-07-10T00:39:36.292Z,15.80
2017-07-10T00:39:40.548Z,15.90
2017-07-10T00:39:45.617Z,15.95
2017-07-10T00:39:49.872Z,16.00
2017-07-10T00:39:54.107Z,15.90
2017-07-10T00:39:58.369Z,15.80
2017-07-10T00:40:03.390Z,15.70
2017-07-10T00:40:08.402Z,15.60
2017-07-10T00:40:13.859Z,15.80
2017-07-10T00:40:18.115Z,15.73
2017-07-10T00:40:22.382Z,15.50
2017-07-10T00:40:26.631Z,15.60
2017-07-10T00:40:30.952Z,15.50
2017-07-10T00:40:35.966Z,15.50
2017-07-10T00:40:40.979Z,15.15
2017-07-10T00:40:46.012Z,15.07
2017-07-10T00:40:51.028Z,14.93
2017-07-10T00:40:55.294Z,14.80
2017-07-10T00:40:59.568Z,14.75
2017-07-10T00:41:03.820Z,14.80
2017-07-10T00:41:08.825Z,14.95
2017-07-10T00:41:13.864Z,14.90
2017-07-10T00:41:18.877Z,15.25
2017-07-10T00:41:23.895Z,15.60
2017-07-10T00:41:28.916Z,15.73
2017-07-10T00:41:33.170Z,15.83
2017-07-10T00:41:37.410Z,15.80
2017-07-10T00:41:42.426Z,15.90
2017-07-10T00:41:47.434Z,15.90
2017-07-10T00:41:52.457Z,16.03
2017-07-10T00:41:57.488Z,16.30
2017-07-10T00:42:02.502Z,16.40
2017-07-10T00:42:07.041Z,16.27
2017-07-10T00:42:11.390Z,16.60
2017-07-10T00:42:15.625Z,16.60
2017-07-10T00:42:19.916Z,16.30
2017-07-10T00:42:24.179Z,16.10
2017-07-10T00:42:28.417Z,16.20
2017-07-10T00:42:33.429Z,16.20
2017-07-10T00:42:38.452Z,16.00
2017-07-10T00:42:43.470Z,15.87
2017-07-10T00:42:47.798Z,15.93
2017-07-10T00:42:52.043Z,16.00
2017-07-10T00:42:56.300Z,15.90
2017-07-10T00:43:00.549Z,16.00
2017-07-10T00:43:04.785Z,16.13
2017-07-10T00:43:09.026Z,16.05
2017-07-10T00:43:13.576Z,16.10
2017-07-10T00:43:17.960Z,16.17
2017-07-10T00:43:22.232Z,16.20
2017-07-10T00:43:26.501Z,16.30
2017-07-10T00:43:30.753Z,16.30
2017-07-10T00:43:35.009Z,16.45
2017-07-10T00:43:39.271Z,16.80
2017-07-10T00:43:44.269Z,17.20
2017-07-10T00:43:48.523Z,17.20
2017-07-10T00:43:52.789Z,17.13
2017-07-10T00:43:57.830Z,17.10
2017-07-10T00:44:02.082Z,17.10
2017-07-10T00:44:06.332Z,17.20
2017-07-10T00:44:10.591Z,17.10
2017-07-10T00:44:14.837Z,17.00
2017-07-10T00:44:19.085Z,17.30
2017-07-10T00:44:23.345Z,17.20
2017-07-10T00:44:27.613Z,17.10
2017-07-10T00:44:32.662Z,17.10
2017-07-10T00:44:36.920Z,17.00
2017-07-10T00:44:41.175Z,16.95
2017-07-10T00:44:45.460Z,16.80
2017-07-10T00:44:49.698Z,16.80
2017-07-10T00:44:53.957Z,16.80
2017-07-10T00:44:58.208Z,16.80
2017-07-10T00:45:02.473Z,16.73
2017-07-10T00:45:06.727Z,16.60
2017-07-10T00:45:11.729Z,16.70
2017-07-10T00:45:15.998Z,16.70
2017-07-10T00:45:20.241Z,16.70
2017-07-10T00:45:25.267Z,16.60
2017-07-10T00:45:30.332Z,16.87
2017-07-10T00:45:34.580Z,17.00
2017-07-10T00:45:39.585Z,17.20
2017-07-10T00:45:43.848Z,17.43
2017-07-10T00:45:48.113Z,17.60
2017-07-10T00:45:52.370Z,17.57
2017-07-10T00:45:56.605Z,17.70
2017-07-10T00:46:01.613Z,17.80
2017-07-10T00:46:06.679Z,17.90
2017-07-10T00:46:10.916Z,17.90
2017-07-10T00:46:15.184Z,17.80
2017-07-10T00:46:19.432Z,17.70
2017-07-10T00:46:23.670Z,17.90
2017-07-10T00:46:27.928Z,17.85
2017-07-10T00:46:32.179Z,17.60
2017-07-10T00:46:36.432Z,17.55
2017-07-10T00:46:40.687Z,17.20
2017-07-10T00:46:44.943Z,17.10
2017-07-10T00:46:49.207Z,17.17
2017-07-10T00:46:53.484Z,17.10
2017-07-10T00:46:57.740Z,17.20
2017-07-10T00:47:01.993Z,17.30
2017-07-10T00:47:06.282Z,17.30
2017-07-10T00:47:10.519Z,17.15
2017-07-10T00:47:14.760Z,17.10
2017-07-10T00:47:19.017Z,17.20
2017-07-10T00:47:23.280Z,17.05
2017-07-10T00:47:27.513Z,17.00
2017-07-10T00:47:31.775Z,17.00
2017-07-10T00:47:36.031Z,17.07
2017-07-10T00:47:40.270Z,17.20
2017-07-10T00:47:44.528Z,17.10
2017-07-10T00:47:48.776Z,17.05
2017-07-10T00:47:53.034Z,17.00
2017-07-10T00:47:57.286Z,16.90
2017-07-10T00:48:01.526Z,16.75
2017-07-10T00:48:05.790Z,16.60
2017-07-10T00:48:10.034Z,16.55
2017-07-10T00:48:14.273Z,16.50
2017-07-10T00:48:18.513Z,16.30
2017-07-10T00:48:22.824Z,16.40
2017-07-10T00:48:27.084Z,16.20
2017-07-10T00:48:31.372Z,16.20
2017-07-10T00:48:36.365Z,16.15
2017-07-10T00:48:41.387Z,16.03
2017-07-10T00:48:46.401Z,16.00
2017-07-10T00:48:51.422Z,16.00
2017-07-10T00:48:56.444Z,15.87
2017-07-10T00:49:01.461Z,15.93
2017-07-10T00:49:06.475Z,16.10
2017-07-10T00:49:11.499Z,16.07
2017-07-10T00:49:16.515Z,16.23
2017-07-10T00:49:21.526Z,16.23
2017-07-10T00:49:26.541Z,16.37
2017-07-10T00:49:30.802Z,16.37
2017-07-10T00:49:35.064Z,16.30
2017-07-10T00:49:39.302Z,16.50
2017-07-10T00:49:43.570Z,16.50
2017-07-10T00:49:47.827Z,16.45
2017-07-10T00:49:52.077Z,16.60
2017-07-10T00:49:56.317Z,16.80
2017-07-10T00:50:00.587Z,16.77
2017-07-10T00:50:04.838Z,16.90
2017-07-10T00:50:09.071Z,16.85
2017-07-10T00:50:13.344Z,16.70
2017-07-10T00:50:17.613Z,16.77
2017-07-10T00:50:21.867Z,16.70
2017-07-10T00:50:26.111Z,16.70
2017-07-10T00:50:30.354Z,16.70
2017-07-10T00:50:35.377Z,16.60
2017-07-10T00:50:39.636Z,16.50
2017-07-10T00:50:43.939Z,16.50
2017-07-10T00:50:48.197Z,16.45
2017-07-10T00:50:52.457Z,16.17
2017-07-10T00:50:57.493Z,16.00
2017-07-10T00:51:01.743Z,16.00
2017-07-10T00:51:05.986Z,16.15
2017-07-10T00:51:11.007Z,16.30
2017-07-10T00:51:16.017Z,16.30
2017-07-10T00:51:21.083Z,16.47
2017-07-10T00:51:25.318Z,16.60
2017-07-10T00:51:29.573Z,16.85
2017-07-10T00:51:33.825Z,17.25
2017-07-10T00:51:38.101Z,17.30
2017-07-10T00:51:42.340Z,17.30
2017-07-10T00:51:47.359Z,17.45
2017-07-10T00:51:52.386Z,17.70
2017-07-10T00:51:57.414Z,17.90
2017-07-10T00:52:01.676Z,18.00
2017-07-10T00:52:05.919Z,17.90
2017-07-10T00:52:10.193Z,17.90
2017-07-10T00:52:14.977Z,17.80
2017-07-10T00:52:19.229Z,17.50
2017-07-10T00:52:23.489Z,17.50
2017-07-10T00:52:27.738Z,17.55
2017-07-10T00:52:32.001Z,17.37
2017-07-10T00:52:36.240Z,17.30
2017-07-10T00:52:40.490Z,17.45
2017-07-10T00:52:44.745Z,17.40
2017-07-10T00:52:49.011Z,17.57
2017-07-10T00:52:54.025Z,17.45
2017-07-10T00:52:59.049Z,17.20
2017-07-10T00:53:04.070Z,17.10
2017-07-10T00:53:09.095Z,17.10
2017-07-10T00:53:14.105Z,17.20
2017-07-10T00:53:19.109Z,17.20
2017-07-10T00:53:24.126Z,17.07
2017-07-10T00:53:28.361Z,16.90
2017-07-10T00:53:32.622Z,16.80
2017-07-10T00:53:36.915Z,16.90
2017-07-10T00:53:41.168Z,16.80
2017-07-10T00:53:45.483Z,16.80
2017-07-10T00:53:49.748Z,16.57
2017-07-10T00:53:54.759Z,16.45
2017-07-10T00:53:59.799Z,16.67
2017-07-10T00:54:04.048Z,17.00
2017-07-10T00:54:08.285Z,17.15
2017-07-10T00:54:12.564Z,17.20
2017-07-10T00:54:16.828Z,17.37
2017-07-10T00:54:21.091Z,17.45
2017-07-10T00:54:25.333Z,17.55
2017-07-10T00:54:29.616Z,17.63
2017-07-10T00:54:33.869Z,17.60
2017-07-10T00:54:38.133Z,17.60
2017-07-10T00:54:42.388Z,17.60
2017-07-10T00:54:47.399Z,17.60
2017-07-10T00:54:52.421Z,17.70
2017-07-10T00:54:57.450Z,17.80
2017-07-10T00:55:02.494Z,17.43
2017-07-10T00:55:06.744Z,17.00
2017-07-10T00:55:10.985Z,16.95
2017-07-10T00:55:15.225Z,16.80
2017-07-10T00:55:19.500Z,16.80
2017-07-10T00:55:23.750Z,17.00
2017-07-10T00:55:28.772Z,17.05
2017-07-10T00:55:33.026Z,17.17
2017-07-10T00:55:37.294Z,17.20
2017-07-10T00:55:41.557Z,17.20
2017-07-10T00:55:45.814Z,17.30
2017-07-10T00:55:50.045Z,17.25
2017-07-10T00:55:55.093Z,17.23
2017-07-10T00:56:00.117Z,17.30
2017-07-10T00:56:05.119Z,17.37
2017-07-10T00:56:09.393Z,17.50
2017-07-10T00:56:13.646Z,17.40
2017-07-10T00:56:17.910Z,17.45
2017-07-10T00:56:22.172Z,17.37
2017-07-10T00:56:26.419Z,17.50
2017-07-10T00:56:31.441Z,17.50
2017-07-10T00:56:36.501Z,17.27
2017-07-10T00:56:40.729Z,17.33